Latest Weather Observations for Latrobe Valley

IDV60801

Issued at 6:05 pm EST Thursday 24 April 2014 (issued every 30 minutes, with the page automatically refreshed every 10 minutes)

About weather observations | Map of weather stations | Latest weather observations for VIC | Other Formats
Station Details ID: 085280 Name: LATROBE VALLEY AIRPORT Lat: -38.21 Lon: 146.47 Height: 55.7 m
Data from the previous 72 hours. | See also: Recent months at Latrobe Valley
Date/Time
EST
Temp
°C
App
Temp
°C
Dew
Point
Rel
Hum
%
Delta-T
°C
Wind Press
QNH
hPa
Press
MSL
hPa
Rain
since 9 am
mm
Dir
 
Spd
km/h
Gust
km/h
Spd
kts
Gust
kts
24/06:00pm 10.6 6.5 4.5 66 2.7 W 15 19 8 10 1019.4 1019.4 0.6
24/05:30pm 11.6 6.8 4.8 63 3.1 WSW 19 26 10 14 1018.9 - 0.6
24/05:00pm 12.7 7.0 5.1 60 3.5 WSW 24 30 13 16 1018.2 - 0.6
24/04:30pm 13.4 6.6 5.3 58 3.8 SW 30 41 16 22 1017.9 - 0.6
24/04:00pm 13.9 7.4 4.5 53 4.3 W 28 37 15 20 1017.6 - 0.6
24/03:30pm 14.8 8.4 5.3 53 4.5 WSW 28 35 15 19 1017.0 - 0.6
24/03:00pm 16.0 9.0 4.1 45 5.5 WSW 30 43 16 23 1016.6 1016.6 0.6
24/02:30pm 14.5 7.1 3.9 49 4.9 WSW 32 44 17 24 1016.5 - 0.6
24/02:00pm 15.7 6.1 3.5 44 5.6 WSW 43 54 23 29 1015.9 - 0.6
24/01:30pm 16.0 6.1 2.8 41 6.0 WSW 44 57 24 31 1015.4 - 0.6
24/01:00pm 16.1 6.3 3.2 42 5.9 W 44 57 24 31 1015.2 - 0.6
24/12:30pm 16.2 9.5 7.2 55 4.5 W 32 44 17 24 1014.9 - 0.6
24/12:05pm 15.1 6.4 6.1 55 4.3 WSW 41 63 22 34 1014.6 - 0.6
24/12:00pm 15.0 6.0 7.1 59 3.9 WSW 44 56 24 30 1014.7 1014.7 0.6
24/11:30am 14.4 6.8 9.0 70 2.8 W 39 50 21 27 1014.4 - 0.6
24/11:23am 14.0 7.7 9.0 72 2.5 W 32 50 17 27 1014.4 - 0.6
24/11:00am 13.3 9.1 12.4 94 0.5 W 26 37 14 20 1014.3 - 0.6
24/10:30am 12.5 9.0 12.2 98 0.2 W 22 30 12 16 1014.3 - 0.6
24/10:12am 12.2 8.1 11.4 95 0.4 W 24 33 13 18 1014.0 - 0.4
24/10:00am 12.3 7.5 11.8 97 0.3 W 28 41 15 22 1013.9 - 0.4
24/09:52am 12.5 7.7 11.7 95 0.4 W 28 37 15 20 1013.7 - 0.2
24/09:30am 12.7 6.6 10.6 87 1.1 W 33 50 18 27 1013.2 - 0.0
24/09:00am 13.9 7.8 9.9 77 2.1 W 32 44 17 24 1012.4 1012.4 0.0
24/08:51am 14.2 8.8 9.4 73 2.5 W 28 44 15 24 1012.1 - 0.0
24/08:30am 12.9 9.3 8.2 73 2.3 W 17 24 9 13 1011.6 - 0.0
24/08:00am 10.4 8.4 10.2 99 0.1 W 11 19 6 10 1011.1 - 0.0
24/07:30am 9.0 6.7 9.0 100 0.0 NW 11 13 6 7 1010.7 - 0.0
24/07:00am 7.2 5.2 7.2 100 0.0 WNW 7 9 4 5 1010.6 - 0.0
24/06:30am 5.9 4.9 5.8 99 0.0 CALM 0 0 0 0 1010.4 - 0.0
24/06:12am 5.2 4.1 5.1 99 0.0 CALM 0 0 0 0 1010.2 - 0.0
24/06:00am 4.7 3.5 4.6 99 0.0 ESE 0 0 0 0 1010.2 1010.2 0.0
24/05:58am 4.7 3.5 4.6 99 0.0 CALM 0 0 0 0 1010.2 - 0.0
24/05:31am 5.1 4.0 5.0 99 0.0 CALM 0 0 0 0 1010.1 - 0.0
24/05:30am 5.0 3.9 4.9 99 0.0 CALM 0 0 0 0 1010.1 - 0.0
24/05:11am 5.0 3.9 4.9 99 0.0 CALM 0 0 0 0 1010.0 - 0.0
24/05:02am 5.5 3.7 5.4 99 0.0 SSW 4 6 2 3 1010.0 - 0.0
24/05:00am 5.7 3.6 5.6 99 0.0 SSW 6 6 3 3 1010.0 - 0.0
24/04:49am 5.0 2.7 4.9 99 0.0 SSW 6 7 3 4 1010.1 - 0.0
24/04:30am 4.7 2.4 4.6 99 0.0 SW 6 7 3 4 1009.9 - 0.0
24/04:21am 4.8 2.3 4.7 99 0.0 SW 7 9 4 5 1010.0 - 0.0
24/04:00am 5.8 4.8 5.7 99 0.0 CALM 0 6 0 3 1010.0 - 0.0
24/03:34am 5.8 4.4 5.7 99 0.0 SW 2 6 1 3 1010.0 - 0.0
24/03:30am 6.2 4.5 6.1 99 0.0 SSW 4 7 2 4 1010.0 - 0.0
24/03:12am 6.8 5.7 6.7 99 0.0 SW 2 7 1 4 1010.3 - 0.0
24/03:00am 6.7 5.9 6.6 99 0.0 CALM 0 0 0 0 1010.3 1010.3 0.0
24/02:55am 6.8 6.0 6.7 99 0.0 CALM 0 0 0 0 1010.4 - 0.0
24/02:30am 6.5 5.3 6.4 99 0.0 SW 2 6 1 3 1010.9 - 0.0
24/02:00am 6.1 5.2 6.0 99 0.0 CALM 0 2 0 1 1011.1 - 0.0
24/01:57am 5.8 4.8 5.7 99 0.0 CALM 0 2 0 1 1011.1 - 0.0
24/01:41am 6.0 4.3 5.9 99 0.0 S 4 6 2 3 1011.3 - 0.0
24/01:30am 7.5 5.8 7.4 99 0.0 S 6 7 3 4 1011.4 - 0.0
24/01:00am 7.9 7.0 7.8 99 0.0 S 2 6 1 3 1011.5 - 0.0
24/12:30am 8.2 7.8 8.1 99 0.0 CALM 0 0 0 0 1012.0 - 0.0
24/12:00am 8.6 8.3 8.5 99 0.0 NW 0 6 0 3 1012.1 1012.1 0.0
 
Date/Time
EST
Temp
°C
App
Temp
°C
Dew
Point
Rel
Hum
%
Delta-T
°C
Wind Press
QNH
hPa
Press
MSL
hPa
Rain
since 9 am
mm
Dir
 
Spd
km/h
Gust
km/h
Spd
kts
Gust
kts
23/11:30pm 7.7 5.8 7.6 99 0.0 WSW 7 9 4 5 1012.3 - 0.0
23/11:00pm 8.1 6.5 8.0 99 0.0 NNE 6 7 3 4 1012.4 - 0.0
23/10:30pm 8.6 8.2 8.2 97 0.2 CALM 0 6 0 3 1012.8 - 0.0
23/10:00pm 9.5 7.9 8.9 96 0.3 SSW 7 11 4 6 1013.0 - 0.0
23/09:30pm 10.1 10.0 9.3 95 0.4 CALM 0 0 0 0 1013.2 - 0.0
23/09:00pm 11.1 9.9 10.2 94 0.5 E 7 9 4 5 1013.3 1013.3 0.0
23/08:30pm 10.4 8.6 9.5 94 0.5 NE 9 11 5 6 1013.3 - 0.0
23/08:00pm 11.2 10.1 9.8 91 0.7 SE 6 9 3 5 1013.4 - 0.0
23/07:30pm 11.8 11.9 10.2 90 0.8 CALM 0 0 0 0 1013.6 - 0.0
23/07:00pm 11.8 10.4 9.7 87 1.1 W 7 7 4 4 1013.6 - 0.0
23/06:30pm 12.3 10.6 9.9 85 1.2 WNW 9 13 5 7 1013.5 - 0.0
23/06:00pm 14.2 12.8 9.6 74 2.4 WNW 7 9 4 5 1013.3 1013.3 0.0
23/05:30pm 14.9 13.5 9.7 71 2.7 WSW 7 9 4 5 1013.2 - 0.0
23/05:00pm 16.1 14.5 10.2 68 3.1 WSW 9 13 5 7 1013.1 - 0.0
23/04:30pm 17.1 14.6 9.8 62 3.8 WSW 13 17 7 9 1013.2 - 0.0
23/04:00pm 17.1 14.5 9.5 61 4.0 WSW 13 19 7 10 1013.2 - 0.0
23/03:30pm 17.9 14.5 9.3 57 4.5 W 17 24 9 13 1013.1 - 0.0
23/03:00pm 18.1 13.6 8.4 53 5.0 W 22 30 12 16 1013.3 1013.3 0.0
23/02:30pm 17.6 13.4 9.8 60 4.1 W 22 28 12 15 1013.4 - 0.0
23/02:00pm 18.6 15.3 10.9 61 4.2 W 19 30 10 16 1013.4 - 0.0
23/01:30pm 18.0 15.8 12.0 68 3.3 W 15 20 8 11 1013.6 - 0.0
23/01:00pm 16.9 15.7 11.6 71 2.9 WNW 9 15 5 8 1014.0 - 0.0
23/12:30pm 17.0 16.7 12.7 76 2.4 SSE 6 9 3 5 1014.5 - 0.0
23/12:00pm 16.6 16.1 12.8 78 2.1 SE 7 11 4 6 1015.2 1015.2 0.0
23/11:49am 16.5 16.0 12.7 78 2.1 E 7 11 4 6 1015.3 - 0.0
23/11:30am 17.0 16.6 12.9 77 2.3 E 7 9 4 5 1015.6 - 0.0
23/11:00am 15.6 15.1 12.2 80 1.9 NE 6 9 3 5 1015.9 - 0.0
23/10:30am 15.5 14.6 12.6 83 1.6 E 9 11 5 6 1016.2 - 0.0
23/10:00am 15.2 14.2 12.3 83 1.6 NE 9 15 5 8 1016.3 - 0.0
23/09:50am 15.3 14.5 13.0 86 1.3 ENE 9 13 5 7 1016.3 - 0.0
23/09:33am 14.7 14.2 12.7 88 1.1 ENE 7 11 4 6 1016.5 - 0.0
23/09:30am 14.5 14.0 12.5 88 1.1 NE 7 11 4 6 1016.5 - 0.0
23/09:00am 14.6 14.6 13.6 94 0.6 ENE 6 9 3 5 1016.6 1016.6 6.4
23/08:30am 13.1 13.3 13.1 100 0.0 ENE 4 11 2 6 1016.4 - 6.4
23/08:00am 12.9 13.1 12.9 100 0.0 E 4 7 2 4 1016.4 - 6.4
23/07:30am 12.6 13.4 12.6 100 0.0 CALM 0 0 0 0 1016.5 - 6.4
23/07:00am 12.5 12.9 12.5 100 0.0 E 2 6 1 3 1016.4 - 6.4
23/06:30am 12.6 13.0 12.6 100 0.0 ESE 2 7 1 4 1016.3 - 6.4
23/06:00am 12.6 12.3 12.6 100 0.0 ESE 6 9 3 5 1016.4 1016.4 6.4
23/05:30am 12.6 12.3 12.6 100 0.0 ESE 6 6 3 3 1016.3 - 6.4
23/05:00am 12.6 12.3 12.6 100 0.0 E 6 7 3 4 1016.6 - 6.4
23/04:30am 12.6 12.3 12.6 100 0.0 E 6 7 3 4 1016.5 - 6.4
23/04:00am 12.5 13.3 12.5 100 0.0 CALM 0 0 0 0 1016.5 - 6.4
23/03:30am 12.6 12.3 12.6 100 0.0 E 6 6 3 3 1016.6 - 6.4
23/03:00am 12.6 13.0 12.6 100 0.0 ESE 2 6 1 3 1016.7 1016.7 6.4
23/02:30am 12.6 12.1 12.6 100 0.0 NNE 7 9 4 5 1016.9 - 6.4
23/02:00am 12.9 13.8 12.9 100 0.0 CALM 0 6 0 3 1016.9 - 6.4
23/01:30am 13.0 13.9 13.0 100 0.0 CALM 0 0 0 0 1017.3 - 6.4
23/01:00am 12.9 13.8 12.9 100 0.0 CALM 0 0 0 0 1017.4 - 6.4
23/12:30am 12.9 12.7 12.9 100 0.0 W 6 7 3 4 1017.5 - 6.4
23/12:00am 12.9 12.5 12.9 100 0.0 NW 7 9 4 5 1017.6 1017.6 6.4
 
Date/Time
EST
Temp
°C
App
Temp
°C
Dew
Point
Rel
Hum
%
Delta-T
°C
Wind Press
QNH
hPa
Press
MSL
hPa
Rain
since 9 am
mm
Dir
 
Spd
km/h
Gust
km/h
Spd
kts
Gust
kts
22/11:30pm 13.0 12.8 13.0 100 0.0 SW 6 9 3 5 1017.6 - 6.4
22/11:00pm 12.9 13.8 12.9 100 0.0 CALM 0 6 0 3 1017.7 - 6.4
22/10:30pm 12.8 12.0 12.8 100 0.0 W 9 13 5 7 1017.8 - 6.4
22/10:00pm 12.7 12.4 12.7 100 0.0 W 6 7 3 4 1017.7 - 6.4
22/09:30pm 12.9 12.7 12.9 100 0.0 NNW 6 7 3 4 1017.5 - 6.4
22/09:23pm 13.0 12.8 13.0 100 0.0 N 6 7 3 4 1017.6 - 6.4
22/09:05pm 13.1 12.7 13.1 100 0.0 NW 7 9 4 5 1017.6 - 6.2
22/09:04pm 13.1 12.4 13.1 100 0.0 NW 9 9 5 5 1017.6 - 6.2
22/09:00pm 13.1 12.7 13.1 100 0.0 NW 7 9 4 5 1017.6 1017.6 6.2
22/08:46pm 13.1 12.4 13.1 100 0.0 NW 9 11 5 6 1017.5 - 6.2
22/08:30pm 13.2 12.9 13.2 100 0.0 WNW 7 9 4 5 1017.4 - 6.0
22/08:00pm 13.3 12.6 13.3 100 0.0 W 9 11 5 6 1017.2 - 6.0
22/07:30pm 13.5 12.9 13.5 100 0.0 W 9 11 5 6 1017.2 - 5.6
22/07:06pm 13.5 12.1 13.5 100 0.0 WSW 13 19 7 10 1016.9 - 5.6
22/07:00pm 13.5 11.8 13.5 100 0.0 WSW 15 20 8 11 1016.9 - 5.6
22/06:48pm 13.5 12.1 13.3 99 0.1 W 13 17 7 9 1016.7 - 5.6
22/06:35pm 13.8 12.1 13.6 99 0.1 WSW 15 20 8 11 1016.5 - 5.6
22/06:30pm 14.1 12.5 13.9 99 0.1 WSW 15 19 8 10 1016.3 - 5.2
22/06:16pm 14.2 12.6 14.0 99 0.1 W 15 17 8 9 1016.1 - 5.0
22/06:00pm 14.2 12.6 14.0 99 0.1 W 15 20 8 11 1015.7 1015.7 4.8
22/05:30pm 14.3 13.1 14.0 98 0.2 W 13 17 7 9 1015.4 - 4.8
22/05:00pm 14.5 12.9 14.0 97 0.3 WSW 15 17 8 9 1015.0 - 4.4
22/04:30pm 14.6 13.5 14.3 98 0.2 W 13 17 7 9 1014.9 - 4.4
22/04:00pm 15.0 13.9 14.2 95 0.5 W 13 17 7 9 1014.6 - 3.6
22/03:30pm 15.3 13.8 14.3 94 0.6 W 15 20 8 11 1014.6 - 3.4
22/03:00pm 15.5 13.2 14.0 91 0.8 WNW 19 28 10 15 1014.2 1014.1 3.2
22/02:30pm 15.6 14.4 14.0 90 0.9 WSW 13 19 7 10 1013.8 - 2.8
22/02:00pm 15.7 16.6 14.1 90 0.9 WSW 2 7 1 4 1014.0 - 2.8
22/01:30pm 15.4 13.2 13.4 88 1.1 WNW 17 28 9 15 1013.8 - 2.6
22/01:00pm 15.6 14.5 14.3 92 0.7 W 13 20 7 11 1014.2 - 2.6
22/12:30pm 15.7 15.4 14.4 92 0.7 WSW 9 11 5 6 1014.5 - 2.4
22/12:00pm 15.4 15.6 14.1 92 0.7 S 6 11 3 6 1014.6 1014.6 2.2
22/11:30am 14.9 14.1 13.9 94 0.6 N 11 15 6 8 1015.1 - 2.2
22/11:00am 14.5 14.4 13.2 92 0.7 N 6 9 3 5 1015.8 - 1.4
22/10:30am 14.5 13.7 12.9 90 0.9 N 9 13 5 7 1015.6 - 1.0
22/10:00am 13.7 12.9 12.8 94 0.5 N 9 11 5 6 1016.0 - 0.8
22/09:30am 13.9 12.6 12.5 91 0.8 WNW 11 17 6 9 1016.1 - 0.2
22/09:00am 13.3 11.8 12.0 92 0.7 WSW 11 15 6 8 1016.9 1016.9 0.4
22/08:30am 12.5 10.6 11.7 95 0.4 WSW 13 20 7 11 1016.9 - 0.0
22/08:00am 12.4 12.4 11.3 93 0.6 W 2 7 1 4 1015.5 - 0.0
22/07:30am 11.8 12.1 10.9 94 0.5 CALM 0 0 0 0 1015.3 - 0.0
22/07:00am 11.1 10.4 9.9 92 0.6 NE 4 7 2 4 1014.7 - 0.0
22/06:30am 11.6 10.3 9.2 85 1.2 S 6 9 3 5 1014.0 - 0.0
22/06:00am 11.1 9.9 9.7 91 0.7 WNW 6 17 3 9 1013.9 1013.9 0.0
22/05:30am 10.8 9.8 8.9 88 0.9 NNE 4 11 2 6 1013.0 - 0.0
22/05:00am 10.8 9.3 9.1 89 0.8 NNW 7 9 4 5 1012.8 - 0.0
22/04:30am 11.9 10.1 9.6 86 1.2 SW 9 13 5 7 1012.8 - 0.0
22/04:00am 10.6 7.7 9.8 95 0.4 SW 15 20 8 11 1012.6 - 0.0
22/03:30am 10.1 9.3 9.6 97 0.3 SW 4 11 2 6 1012.2 - 0.0
22/03:00am 9.9 9.0 9.4 97 0.2 NW 4 9 2 5 1012.3 1012.3 0.0
22/02:30am 9.0 8.6 8.2 95 0.4 CALM 0 0 0 0 1012.6 - 0.0
22/02:00am 9.3 9.0 8.5 95 0.4 CALM 0 0 0 0 1012.9 - 0.0
22/01:30am 9.5 8.7 8.3 92 0.6 NNW 2 9 1 5 1013.2 - 0.0
22/01:00am 10.1 9.1 8.9 92 0.6 NNE 4 7 2 4 1013.4 - 0.0
22/12:30am 10.3 10.1 9.1 92 0.6 CALM 0 7 0 4 1013.9 - 0.0
22/12:00am 10.3 10.1 8.9 91 0.7 CALM 0 6 0 3 1014.2 1014.1 0.0
 
Date/Time
EST
Temp
°C
App
Temp
°C
Dew
Point
Rel
Hum
%
Delta-T
°C
Wind Press
QNH
hPa
Press
MSL
hPa
Rain
since 9 am
mm
Dir
 
Spd
km/h
Gust
km/h
Spd
kts
Gust
kts
21/11:30pm 10.4 10.1 8.7 89 0.8 CALM 0 0 0 0 1014.2 - 0.0
21/11:00pm 11.1 10.9 9.0 87 1.0 CALM 0 0 0 0 1014.4 - 0.0
21/10:30pm 10.8 10.5 8.6 86 1.1 CALM 0 0 0 0 1014.5 - 0.0
21/10:00pm 11.6 11.3 8.8 83 1.4 CALM 0 0 0 0 1014.6 - 0.0
21/09:30pm 11.6 11.2 8.3 80 1.6 CALM 0 0 0 0 1014.8 - 0.0
21/09:00pm 12.7 11.6 8.4 75 2.1 NW 4 9 2 5 1014.7 1014.7 0.0
21/08:30pm 14.5 12.5 8.5 67 3.0 E 9 11 5 6 1014.6 - 0.0
21/08:00pm 14.4 12.8 8.6 68 2.9 E 7 11 4 6 1014.7 - 0.0
21/07:30pm 14.9 13.3 8.6 66 3.2 E 7 11 4 6 1014.8 - 0.0
21/07:00pm 14.5 12.9 8.2 66 3.2 NNE 6 9 3 5 1014.8 - 0.0
21/06:30pm 15.8 14.3 9.0 64 3.5 NE 7 9 4 5 1014.7 - 0.0

Other Formats:

Comma delimited format used in spreadsheet applications
http://www.bom.gov.au/fwo/IDV60801/IDV60801.94891.axf

JavaScript Object Notation format (JSON) in row-major order
http://www.bom.gov.au/fwo/IDV60801/IDV60801.94891.json